Time;durP1;ratioP1;P1;durP2;ratioP2;P2;SDS_P1;SDS_P2;PMS_P1;PMS_P2;Temp;Humidity;BMP_temperature;BMP_pressure;BME280_temperature;BME280_humidity;BME280_pressure;Samples;Min_cycle;Max_cycle;Signal;HPM_P1;HPM_P2
2021/05/29 00:01:16;;;;;;;1.70;1.60;;;21.10;50.80;;;;;;5063982;28;20225;-56
2021/05/29 00:03:45;;;;;;;1.80;1.70;;;21.10;50.80;;;;;;5062138;28;20236;-55
2021/05/29 00:06:12;;;;;;;1.67;1.37;;;21.10;50.80;;;;;;5061418;28;20209;-56
2021/05/29 00:08:42;;;;;;;1.90;1.80;;;21.10;50.80;;;;;;5065501;28;20278;-55
2021/05/29 00:11:09;;;;;;;2.27;1.63;;;21.10;50.80;;;;;;5064561;28;20222;-55
2021/05/29 00:13:37;;;;;;;1.60;1.50;;;21.10;50.80;;;;;;5068708;28;20228;-55
2021/05/29 00:16:05;;;;;;;1.63;1.50;;;21.10;50.80;;;;;;5062463;28;20234;-55
2021/05/29 00:18:32;;;;;;;1.60;1.50;;;21.10;50.80;;;;;;5073434;28;20421;-56
2021/05/29 00:20:59;;;;;;;1.67;1.57;;;21.10;51.00;;;;;;5058837;28;20540;-55
2021/05/29 00:23:25;;;;;;;1.70;1.60;;;21.10;50.90;;;;;;5070372;28;20248;-55
2021/05/29 00:25:52;;;;;;;1.50;1.40;;;21.00;50.90;;;;;;5063065;28;20215;-55
2021/05/29 00:28:19;;;;;;;1.63;1.53;;;21.10;50.90;;;;;;5071258;28;20210;-55
2021/05/29 00:30:46;;;;;;;1.80;1.60;;;21.00;50.90;;;;;;5060962;28;20267;-55
2021/05/29 00:33:14;;;;;;;1.60;1.50;;;21.00;50.90;;;;;;5063998;28;20711;-55
2021/05/29 00:35:41;;;;;;;1.70;1.50;;;21.00;50.90;;;;;;5067116;28;20225;-55
2021/05/29 00:38:08;;;;;;;1.97;1.70;;;21.00;50.90;;;;;;5067797;28;20723;-55
2021/05/29 00:40:36;;;;;;;1.77;1.37;;;21.00;50.90;;;;;;5061007;28;20605;-55
2021/05/29 00:43:04;;;;;;;1.40;1.30;;;21.00;50.90;;;;;;5072126;28;20413;-55
2021/05/29 00:45:31;;;;;;;1.50;1.40;;;21.00;50.90;;;;;;5058798;28;20229;-56
2021/05/29 00:48:02;;;;;;;1.63;1.37;;;21.00;50.80;;;;;;5056125;28;20484;-55
2021/05/29 00:50:33;;;;;;;1.10;1.10;;;21.00;50.90;;;;;;5060209;28;20236;-55
2021/05/29 00:53:01;;;;;;;1.63;1.53;;;21.00;50.90;;;;;;5057209;28;21267;-55
2021/05/29 00:55:28;;;;;;;1.37;1.27;;;21.00;50.90;;;;;;5060554;28;20899;-55
2021/05/29 00:57:55;;;;;;;2.90;1.47;;;21.00;50.90;;;;;;5061562;28;20225;-55
2021/05/29 01:00:23;;;;;;;1.60;1.50;;;21.00;51.00;;;;;;5059011;28;20229;-56
2021/05/29 01:02:51;;;;;;;1.60;1.50;;;21.00;50.90;;;;;;5057342;28;20218;-55
2021/05/29 01:05:19;;;;;;;1.63;1.23;;;21.00;51.00;;;;;;5071794;28;20233;-55
2021/05/29 01:07:54;;;;;;;1.43;1.33;;;20.90;51.00;;;;;;5059048;28;20680;-55
2021/05/29 01:10:24;;;;;;;1.43;1.33;;;21.00;51.10;;;;;;5073986;28;20683;-56
2021/05/29 01:12:53;;;;;;;1.33;1.23;;;20.90;51.00;;;;;;5060664;28;20643;-55
2021/05/29 01:15:21;;;;;;;1.47;1.20;;;20.90;51.00;;;;;;5068042;28;20229;-55
2021/05/29 01:17:49;;;;;;;1.20;1.10;;;20.90;51.00;;;;;;5065415;28;20224;-55
2021/05/29 01:20:16;;;;;;;1.87;1.20;;;20.90;51.10;;;;;;5076176;28;20241;-55
2021/05/29 01:22:43;;;;;;;2.10;1.43;;;20.90;51.10;;;;;;5057279;28;20221;-55
2021/05/29 01:25:18;;;;;;;1.60;1.27;;;20.90;51.10;;;;;;5070170;28;20209;-56
2021/05/29 01:27:53;;;;;;;1.70;1.37;;;20.90;51.10;;;;;;5068222;28;20227;-56
2021/05/29 01:30:20;;;;;;;1.40;1.30;;;20.90;51.10;;;;;;5069151;28;20217;-55
2021/05/29 01:32:47;;;;;;;1.40;1.20;;;20.90;51.10;;;;;;5058074;28;20636;-55
2021/05/29 01:35:15;;;;;;;1.80;1.20;;;20.90;51.20;;;;;;5061256;28;20221;-55
2021/05/29 01:37:42;;;;;;;1.30;1.20;;;20.90;51.10;;;;;;5063660;28;20217;-55
2021/05/29 01:40:09;;;;;;;1.30;1.20;;;20.80;51.10;;;;;;5062977;28;20225;-55
2021/05/29 01:42:38;;;;;;;3.27;1.43;;;20.90;51.10;;;;;;5066412;28;20224;-55
2021/05/29 01:45:08;;;;;;;1.30;1.20;;;20.80;51.10;;;;;;5057929;28;20702;-55
2021/05/29 01:47:42;;;;;;;1.20;1.10;;;20.80;51.20;;;;;;5066890;28;20232;-56
2021/05/29 01:50:12;;;;;;;1.30;1.20;;;20.80;51.20;;;;;;5053188;28;20242;-55
2021/05/29 01:52:49;;;;;;;1.30;1.20;;;20.80;51.20;;;;;;5071642;28;20715;-55
2021/05/29 01:55:18;;;;;;;1.57;1.40;;;20.80;51.20;;;;;;5055014;28;20237;-56
2021/05/29 01:57:45;;;;;;;1.63;1.20;;;20.80;51.80;;;;;;5064856;28;20244;-55
2021/05/29 02:00:14;;;;;;;1.40;1.30;;;20.80;51.20;;;;;;5056926;28;20229;-55
2021/05/29 02:02:41;;;;;;;1.50;1.40;;;20.80;51.20;;;;;;5066870;28;20670;-56
2021/05/29 02:05:14;;;;;;;1.30;1.20;;;20.80;51.30;;;;;;5059314;28;20232;-55
2021/05/29 02:07:42;;;;;;;1.40;1.30;;;20.80;51.30;;;;;;5062905;28;20228;-56
2021/05/29 02:10:11;;;;;;;1.20;1.10;;;20.80;51.30;;;;;;5058633;28;20221;-56
2021/05/29 02:12:42;;;;;;;1.30;1.20;;;20.80;51.30;;;;;;5063845;28;20319;-56
2021/05/29 02:15:12;;;;;;;1.10;1.00;;;20.80;51.30;;;;;;5062059;28;20237;-55
2021/05/29 02:17:39;;;;;;;1.30;1.20;;;20.80;51.40;;;;;;5046613;28;20229;-55
2021/05/29 02:20:07;;;;;;;1.40;1.30;;;20.70;51.30;;;;;;5077135;28;20232;-56
2021/05/29 02:22:34;;;;;;;1.37;1.27;;;20.70;51.30;;;;;;5062223;28;20222;-55
2021/05/29 02:25:03;;;;;;;1.03;0.93;;;20.70;51.30;;;;;;5069421;28;21183;-55
2021/05/29 02:27:30;;;;;;;0.93;0.90;;;20.70;51.30;;;;;;5057315;28;21495;-55
2021/05/29 02:29:57;;;;;;;1.30;1.20;;;20.70;51.40;;;;;;5080247;28;20721;-55
2021/05/29 02:32:24;;;;;;;1.40;1.30;;;20.70;51.30;;;;;;5056147;28;20233;-55
2021/05/29 02:34:51;;;;;;;1.00;1.00;;;20.70;51.40;;;;;;5069935;28;20224;-55
2021/05/29 02:37:18;;;;;;;1.70;1.27;;;20.70;51.40;;;;;;5061074;28;20221;-55
2021/05/29 02:39:44;;;;;;;1.27;0.90;;;20.70;51.40;;;;;;5079224;28;20234;-56
2021/05/29 02:42:11;;;;;;;1.30;1.20;;;20.70;51.40;;;;;;5060905;28;20223;-55
2021/05/29 02:44:38;;;;;;;1.30;1.20;;;20.70;51.40;;;;;;5066751;28;20240;-55
2021/05/29 02:47:05;;;;;;;1.10;1.00;;;20.70;51.50;;;;;;5055504;28;20217;-56
2021/05/29 02:49:32;;;;;;;1.20;1.10;;;20.70;51.50;;;;;;5067567;28;20232;-55
2021/05/29 02:51:59;;;;;;;1.60;1.20;;;20.70;51.50;;;;;;5065911;28;20225;-55
2021/05/29 02:54:26;;;;;;;1.13;1.00;;;20.70;51.40;;;;;;5074707;28;20237;-55
2021/05/29 02:56:53;;;;;;;1.37;1.27;;;20.70;51.50;;;;;;5062474;28;20213;-55
2021/05/29 02:59:19;;;;;;;1.20;1.10;;;20.60;51.40;;;;;;5067668;28;20238;-55
2021/05/29 03:01:46;;;;;;;1.03;0.93;;;20.70;51.50;;;;;;5062732;28;20217;-55
2021/05/29 03:04:13;;;;;;;1.40;1.30;;;20.70;51.50;;;;;;5073212;28;20216;-55
2021/05/29 03:06:40;;;;;;;1.43;1.17;;;20.70;51.40;;;;;;5050521;28;20220;-55
2021/05/29 03:09:07;;;;;;;1.10;1.10;;;20.70;51.50;;;;;;5071013;28;20232;-55
2021/05/29 03:11:40;;;;;;;0.80;0.80;;;20.60;51.30;;;;;;5072783;28;20221;-55
2021/05/29 03:14:08;;;;;;;1.23;1.13;;;20.60;51.40;;;;;;5065183;28;20534;-56
2021/05/29 03:16:35;;;;;;;1.10;1.10;;;20.60;51.40;;;;;;5072496;28;20221;-55
2021/05/29 03:19:02;;;;;;;1.10;1.00;;;20.60;51.40;;;;;;5063132;28;21601;-55
2021/05/29 03:21:29;;;;;;;1.10;1.00;;;20.60;51.40;;;;;;5060490;28;20685;-55
2021/05/29 03:23:56;;;;;;;1.20;1.03;;;20.60;51.40;;;;;;5062945;28;25750;-55
2021/05/29 03:26:23;;;;;;;1.30;1.20;;;20.60;51.40;;;;;;5061944;28;20228;-55
2021/05/29 03:28:51;;;;;;;1.27;1.10;;;20.60;51.50;;;;;;5060020;28;20721;-55
2021/05/29 03:31:18;;;;;;;1.00;1.00;;;20.60;51.40;;;;;;5081312;28;20740;-56
2021/05/29 03:33:45;;;;;;;1.20;1.10;;;20.60;51.40;;;;;;5061267;28;20312;-56
2021/05/29 03:36:12;;;;;;;1.60;1.20;;;20.60;51.40;;;;;;5070866;28;20220;-55
2021/05/29 03:38:41;;;;;;;1.27;1.17;;;20.60;51.40;;;;;;5060734;28;20225;-56
2021/05/29 03:41:08;;;;;;;1.13;1.10;;;20.50;51.30;;;;;;5048937;28;20228;-55
2021/05/29 03:43:35;;;;;;;0.83;0.83;;;20.60;51.40;;;;;;5058394;28;20222;-56
2021/05/29 03:46:03;;;;;;;1.10;1.00;;;20.50;51.40;;;;;;5062057;28;20588;-56
2021/05/29 03:48:31;;;;;;;0.97;0.90;;;20.50;51.40;;;;;;5060670;28;20227;-55
2021/05/29 03:50:57;;;;;;;0.80;0.80;;;20.50;51.40;;;;;;5068628;28;20221;-55
2021/05/29 03:53:25;;;;;;;1.40;1.30;;;20.50;51.40;;;;;;5059167;28;20592;-55
2021/05/29 03:55:51;;;;;;;1.17;1.10;;;20.50;51.50;;;;;;5066545;28;20233;-55
2021/05/29 03:58:18;;;;;;;1.10;1.10;;;20.50;51.50;;;;;;5062904;28;20237;-55
2021/05/29 04:00:45;;;;;;;1.47;1.37;;;20.50;51.50;;;;;;5067058;28;20225;-55
2021/05/29 04:03:12;;;;;;;1.13;1.10;;;20.50;51.50;;;;;;5071767;28;20585;-56
2021/05/29 04:05:39;;;;;;;1.10;0.97;;;20.50;51.60;;;;;;5072519;28;20579;-54
2021/05/29 04:08:06;;;;;;;1.10;1.10;;;20.50;51.50;;;;;;5045708;28;20597;-55
2021/05/29 04:10:35;;;;;;;1.00;1.00;;;20.50;51.50;;;;;;5055006;28;20213;-54
2021/05/29 04:13:02;;;;;;;1.13;1.03;;;20.50;51.50;;;;;;5062251;28;20297;-54
2021/05/29 04:15:29;;;;;;;0.83;0.83;;;20.50;51.60;;;;;;5054892;28;20226;-55
2021/05/29 04:17:56;;;;;;;1.20;1.10;;;20.50;51.60;;;;;;5074456;28;20232;-55
2021/05/29 04:20:25;;;;;;;1.20;1.13;;;20.40;51.40;;;;;;5060021;28;20226;-56
2021/05/29 04:22:52;;;;;;;0.87;0.87;;;20.40;51.50;;;;;;5070450;28;20227;-56
2021/05/29 04:25:25;;;;;;;1.17;1.13;;;20.50;51.60;;;;;;5061470;28;20222;-54
2021/05/29 04:27:54;;;;;;;1.13;1.10;;;20.50;51.60;;;;;;5050008;28;20222;-54
2021/05/29 04:30:24;;;;;;;2.83;1.30;;;20.50;51.50;;;;;;5058707;28;20237;-53
2021/05/29 04:32:51;;;;;;;1.40;1.20;;;20.40;51.60;;;;;;5067135;28;20581;-54
2021/05/29 04:35:19;;;;;;;1.23;1.13;;;20.50;51.60;;;;;;5064977;28;20229;-54
2021/05/29 04:37:48;;;;;;;1.17;1.07;;;20.40;51.50;;;;;;5079414;28;20225;-54
2021/05/29 04:40:17;;;;;;;1.43;1.10;;;20.40;51.50;;;;;;5058468;28;20236;-54
2021/05/29 04:42:48;;;;;;;0.90;0.90;;;20.40;51.50;;;;;;5066458;28;20225;-54
2021/05/29 04:45:15;;;;;;;1.27;1.20;;;20.40;51.50;;;;;;5056696;28;20230;-56
2021/05/29 04:47:43;;;;;;;1.30;1.20;;;20.40;51.50;;;;;;5061027;28;20225;-55
2021/05/29 04:50:11;;;;;;;1.20;1.10;;;20.40;51.50;;;;;;5058800;28;20228;-55
2021/05/29 04:52:38;;;;;;;1.40;1.30;;;20.40;51.50;;;;;;5060709;28;20222;-56
2021/05/29 04:55:08;;;;;;;1.10;1.00;;;20.40;51.50;;;;;;5056192;28;20585;-56
2021/05/29 04:57:35;;;;;;;2.53;1.07;;;20.40;51.50;;;;;;5063278;22;20226;-77
2021/05/29 05:00:09;;;;;;;1.37;1.27;;;20.40;51.50;;;;;;5030967;28;20329;-78
2021/05/29 05:02:36;;;;;;;1.30;1.20;;;20.40;51.50;;;;;;5026037;28;20215;-78
2021/05/29 05:05:04;;;;;;;1.70;1.30;;;20.40;51.50;;;;;;5032429;28;22701;-78
2021/05/29 05:07:31;;;;;;;1.33;1.23;;;20.40;51.50;;;;;;5014985;28;20238;-78
2021/05/29 05:09:58;;;;;;;1.17;1.07;;;20.40;51.50;;;;;;5036499;28;20214;-77
2021/05/29 05:12:25;;;;;;;1.07;1.07;;;20.40;51.40;;;;;;5027892;28;20752;-77
2021/05/29 05:14:51;;;;;;;1.93;1.30;;;20.40;51.50;;;;;;5034873;28;20222;-77
2021/05/29 05:17:18;;;;;;;1.40;1.30;;;20.40;51.60;;;;;;5025728;28;20234;-79
2021/05/29 05:19:45;;;;;;;1.20;1.10;;;20.40;51.50;;;;;;5031639;28;20229;-76
2021/05/29 05:22:12;;;;;;;2.03;1.40;;;20.40;51.50;;;;;;5020198;28;20698;-75
2021/05/29 05:24:39;;;;;;;5.53;2.33;;;20.40;51.60;;;;;;5027258;28;20222;-76
2021/05/29 05:27:06;;;;;;;8.43;2.90;;;20.40;52.40;;;;;;5019373;28;20234;-75
2021/05/29 05:29:33;;;;;;;9.47;3.23;;;20.40;52.00;;;;;;5022850;28;20741;-75
2021/05/29 05:32:00;;;;;;;7.67;2.83;;;20.40;52.00;;;;;;5020654;28;20215;-76
2021/05/29 05:34:27;;;;;;;11.90;3.37;;;20.40;51.90;;;;;;5033470;28;20227;-75
2021/05/29 05:36:54;;;;;;;8.67;2.90;;;20.40;51.80;;;;;;5028627;28;20728;-75
2021/05/29 05:39:20;;;;;;;7.77;2.40;;;20.40;51.80;;;;;;5023268;28;20330;-75
2021/05/29 05:41:47;;;;;;;7.30;2.77;;;20.40;51.80;;;;;;5030253;28;20226;-75
2021/05/29 05:44:14;;;;;;;8.00;2.63;;;20.40;51.80;;;;;;5030949;28;20698;-75
2021/05/29 05:46:41;;;;;;;9.63;2.83;;;20.40;51.80;;;;;;5033046;28;20218;-76
2021/05/29 05:49:08;;;;;;;6.30;2.43;;;20.40;51.80;;;;;;5025812;28;20231;-75
2021/05/29 05:51:35;;;;;;;6.70;2.63;;;20.40;51.70;;;;;;5034593;28;20913;-75
2021/05/29 05:54:03;;;;;;;7.87;2.93;;;20.40;51.70;;;;;;5024485;28;20845;-76
2021/05/29 05:56:30;;;;;;;6.20;1.80;;;20.40;51.70;;;;;;5015943;28;20234;-78
2021/05/29 05:58:57;;;;;;;6.33;2.50;;;20.40;51.70;;;;;;5022427;28;20273;-75
2021/05/29 06:01:27;;;;;;;4.47;1.97;;;20.40;51.70;;;;;;5017159;28;20233;-75
2021/05/29 06:03:54;;;;;;;5.57;2.47;;;20.50;51.80;;;;;;5016671;28;20277;-75
2021/05/29 06:06:23;;;;;;;6.90;2.10;;;20.40;51.70;;;;;;5034606;28;20221;-75
2021/05/29 06:08:50;;;;;;;5.87;2.70;;;20.40;51.70;;;;;;5018472;28;20239;-74
2021/05/29 06:11:17;;;;;;;6.77;2.27;;;20.40;51.70;;;;;;5026633;28;20267;-75
2021/05/29 06:21:46;;;;;;;5.17;1.83;;;20.40;51.60;;;;;;5018259;28;20227;-77
2021/05/29 06:24:16;;;;;;;2.10;1.80;;;20.40;51.70;;;;;;5023427;28;20221;-76
2021/05/29 06:26:43;;;;;;;3.10;1.80;;;20.40;51.70;;;;;;5028292;28;20226;-77
2021/05/29 06:29:11;;;;;;;4.13;2.27;;;20.50;51.70;;;;;;5018667;28;20226;-77
2021/05/29 06:31:39;;;;;;;3.13;1.90;;;20.40;51.60;;;;;;5025937;28;20250;-77
2021/05/29 06:34:06;;;;;;;2.30;1.77;;;20.50;51.60;;;;;;5012598;28;20306;-78
2021/05/29 06:36:33;;;;;;;3.30;1.40;;;20.50;51.70;;;;;;5025193;28;20221;-78
2021/05/29 06:39:00;;;;;;;5.00;1.57;;;20.50;51.70;;;;;;5021913;28;20257;-78
2021/05/29 06:41:27;;;;;;;2.43;1.80;;;20.50;51.70;;;;;;5021584;28;20554;-78
2021/05/29 06:43:54;;;;;;;2.80;1.70;;;20.50;51.80;;;;;;5022873;28;20219;-76
2021/05/29 06:46:21;;;;;;;9.63;2.40;;;20.50;51.90;;;;;;5019852;28;20212;-76
2021/05/29 06:48:48;;;;;;;5.83;2.10;;;20.50;52.20;;;;;;5038205;28;20271;-76
2021/05/29 06:51:21;;;;;;;6.00;2.20;;;20.50;52.30;;;;;;5022398;28;20729;-76
2021/05/29 06:53:53;;;;;;;4.97;1.63;;;20.50;52.40;;;;;;5016599;28;20218;-75
2021/05/29 06:59:05;;;;;;;12.27;2.40;;;20.50;52.50;;;;;;5036809;28;20458;-79
2021/05/29 07:01:32;;;;;;;6.20;2.17;;;20.50;52.40;;;;;;5023841;28;20230;-76
2021/05/29 07:03:59;;;;;;;7.03;2.40;;;20.50;53.10;;;;;;5023164;28;20309;-77
2021/05/29 07:06:26;;;;;;;6.07;2.50;;;20.60;54.30;;;;;;5025639;28;20241;-77
2021/05/29 07:08:56;;;;;;;5.73;2.53;;;20.50;54.20;;;;;;5028281;28;20734;-77
2021/05/29 07:11:23;;;;;;;7.27;2.33;;;20.60;54.00;;;;;;5025456;28;20215;-76
2021/05/29 07:13:50;;;;;;;7.53;2.20;;;20.60;53.90;;;;;;5024193;28;20242;-76
2021/05/29 07:16:17;;;;;;;8.13;1.80;;;20.60;53.70;;;;;;5021614;28;20229;-77
2021/05/29 07:18:45;;;;;;;3.93;1.90;;;20.60;53.60;;;;;;5027108;28;20576;-77
2021/05/29 07:21:13;;;;;;;2.97;1.73;;;20.60;53.30;;;;;;5031851;28;20230;-78
2021/05/29 07:23:43;;;;;;;4.73;1.70;;;20.50;53.20;;;;;;5022457;28;20211;-79
2021/05/29 07:26:12;;;;;;;6.00;1.90;;;20.60;53.10;;;;;;5039266;28;20230;-77
2021/05/29 07:28:38;;;;;;;3.60;2.00;;;20.60;52.90;;;;;;5022264;28;20231;-77
2021/05/29 07:31:05;;;;;;;3.83;1.67;;;20.60;52.90;;;;;;5021334;28;20218;-77
2021/05/29 07:33:36;;;;;;;4.97;1.83;;;20.60;52.80;;;;;;5016272;28;21243;-79
2021/05/29 07:36:04;;;;;;;3.97;1.67;;;20.60;52.70;;;;;;5017884;28;20386;-78
2021/05/29 07:38:31;;;;;;;4.23;2.33;;;20.60;52.70;;;;;;5018569;28;20331;-77
2021/05/29 07:40:58;;;;;;;9.23;2.00;;;20.60;54.50;;;;;;5029452;28;20709;-78
2021/05/29 07:43:24;;;;;;;6.70;1.90;;;20.60;55.10;;;;;;5020007;28;20218;-76
2021/05/29 07:45:51;;;;;;;4.23;1.63;;;20.70;54.00;;;;;;5013191;28;20744;-78
2021/05/29 07:48:18;;;;;;;2.77;1.70;;;20.70;53.70;;;;;;5015701;28;20286;-78
2021/05/29 07:50:59;;;;;;;2.00;1.43;;;20.80;53.40;;;;;;5015485;28;20233;-79
2021/05/29 07:53:37;;;;;;;3.30;1.70;;;20.80;52.70;;;;;;5026083;28;20233;-80
2021/05/29 07:56:09;;;;;;;3.13;1.77;;;20.80;52.50;;;;;;5036620;28;20230;-79
2021/05/29 07:58:39;;;;;;;2.93;1.77;;;20.90;52.90;;;;;;5025390;28;20861;-79
2021/05/29 08:01:05;;;;;;;3.37;1.83;;;20.90;52.60;;;;;;5018116;28;20470;-80
2021/05/29 08:03:33;;;;;;;2.60;1.60;;;21.00;52.40;;;;;;5030823;28;20773;-80
2021/05/29 08:06:03;;;;;;;4.60;1.87;;;21.00;52.40;;;;;;5039398;28;20229;-83
2021/05/29 08:08:30;;;;;;;1.97;1.77;;;21.00;52.50;;;;;;5025498;28;20744;-88
2021/05/29 08:10:59;;;;;;;4.00;1.80;;;21.10;52.30;;;;;;5014991;28;20311;-81
2021/05/29 08:13:27;;;;;;;2.90;1.63;;;21.10;52.00;;;;;;5027526;28;20227;-79
2021/05/29 08:15:54;;;;;;;3.60;1.60;;;21.10;52.00;;;;;;5035463;28;20219;-79
2021/05/29 08:18:26;;;;;;;2.83;1.80;;;21.20;52.00;;;;;;5033275;28;20288;-78
2021/05/29 08:20:53;;;;;;;2.00;1.67;;;21.20;52.00;;;;;;5033594;28;20222;-76
2021/05/29 08:23:20;;;;;;;6.57;1.70;;;21.30;52.20;;;;;;5023358;28;20233;-77
2021/05/29 08:25:47;;;;;;;2.87;1.63;;;21.30;52.30;;;;;;5029683;28;20223;-77
2021/05/29 08:28:14;;;;;;;4.17;1.90;;;21.40;52.40;;;;;;5012112;28;20250;-78
2021/05/29 08:30:42;;;;;;;1.80;1.50;;;21.50;52.40;;;;;;5017481;28;20219;-78
2021/05/29 08:33:10;;;;;;;3.30;1.60;;;21.50;52.30;;;;;;5017356;28;20223;-79
2021/05/29 08:35:37;;;;;;;4.80;1.80;;;21.60;52.30;;;;;;5027239;28;20218;-80
2021/05/29 08:38:04;;;;;;;1.70;1.60;;;21.60;52.40;;;;;;5020039;28;20230;-77
2021/05/29 08:40:32;;;;;;;2.67;1.87;;;21.60;52.40;;;;;;5022382;28;20523;-83
2021/05/29 08:42:59;;;;;;;2.47;1.90;;;21.70;52.60;;;;;;5027188;28;20233;-79
2021/05/29 08:45:26;;;;;;;1.90;1.73;;;21.70;53.30;;;;;;4995468;28;20227;-79
2021/05/29 08:47:53;;;;;;;6.00;1.93;;;21.80;52.80;;;;;;5018181;28;20249;-79
2021/05/29 08:50:21;;;;;;;3.47;2.10;;;21.80;52.80;;;;;;5025371;28;20219;-79
2021/05/29 08:52:48;;;;;;;3.73;1.90;;;21.90;52.80;;;;;;5022563;28;20226;-77
2021/05/29 08:55:18;;;;;;;2.60;1.80;;;21.90;53.00;;;;;;5017703;28;20644;-76
2021/05/29 08:57:48;;;;;;;2.70;1.90;;;21.90;53.20;;;;;;5037733;28;20237;-77
2021/05/29 09:00:25;;;;;;;2.60;1.93;;;22.00;53.30;;;;;;5014840;28;20350;-78
2021/05/29 09:03:00;;;;;;;2.13;1.70;;;22.10;53.50;;;;;;5011738;28;20246;-79
2021/05/29 09:05:53;;;;;;;5.20;2.77;;;22.10;53.40;;;;;;5020126;28;20280;-76
2021/05/29 09:08:25;;;;;;;3.67;2.90;;;22.00;55.80;;;;;;5000847;28;20249;-78
2021/05/29 09:10:55;;;;;;;4.20;2.80;;;22.00;56.80;;;;;;5021324;28;20226;-79
2021/05/29 09:13:27;;;;;;;4.37;3.13;;;22.00;57.30;;;;;;5021926;28;20225;-81
2021/05/29 09:15:59;;;;;;;3.17;2.80;;;22.00;57.40;;;;;;5030416;28;20762;-80
2021/05/29 09:18:31;;;;;;;3.30;2.60;;;22.00;57.40;;;;;;5028108;28;20219;-80
2021/05/29 09:21:32;;;;;;;2.93;2.47;;;21.90;57.80;;;;;;5026246;28;20234;-81
2021/05/29 09:24:16;;;;;;;3.30;2.53;;;22.00;58.50;;;;;;5013193;28;21620;-81
2021/05/29 09:26:53;;;;;;;4.77;2.50;;;22.00;58.30;;;;;;5005636;28;20348;-80
2021/05/29 09:29:30;;;;;;;3.67;2.37;;;21.90;58.30;;;;;;5016651;28;20226;-79
2021/05/29 09:32:03;;;;;;;2.87;2.50;;;21.90;58.80;;;;;;5010711;28;20276;-78
2021/05/29 09:34:31;;;;;;;5.57;2.23;;;21.90;58.70;;;;;;5016171;28;20215;-79
2021/05/29 09:37:29;;;;;;;3.70;2.20;;;22.00;59.00;;;;;;5022052;28;20239;-80
2021/05/29 09:39:58;;;;;;;3.90;2.40;;;22.00;59.10;;;;;;5000366;28;20238;-77
2021/05/29 09:42:29;;;;;;;2.30;1.80;;;22.00;59.40;;;;;;5013923;28;20230;-77
2021/05/29 09:44:56;;;;;;;2.33;2.13;;;22.00;59.60;;;;;;5006919;28;20702;-76
2021/05/29 09:47:28;;;;;;;3.43;2.33;;;22.00;59.30;;;;;;5019199;28;20242;-77
2021/05/29 09:49:57;;;;;;;2.67;2.40;;;22.00;59.10;;;;;;5021431;28;20714;-78
2021/05/29 09:52:39;;;;;;;4.03;2.33;;;22.10;59.60;;;;;;5014367;28;20220;-80
2021/05/29 09:55:13;;;;;;;2.70;1.93;;;22.10;59.80;;;;;;5016023;28;20230;-76
2021/05/29 09:57:51;;;;;;;5.23;2.00;;;22.10;59.40;;;;;;5009573;28;20239;-78
2021/05/29 10:00:19;;;;;;;8.37;2.10;;;22.10;59.70;;;;;;5014877;28;20234;-77
2021/05/29 10:03:04;;;;;;;2.97;2.23;;;22.10;59.70;;;;;;5016716;28;20740;-80
2021/05/29 10:05:33;;;;;;;3.00;2.07;;;22.10;59.90;;;;;;5010592;28;20222;-80
2021/05/29 10:08:01;;;;;;;4.63;1.73;;;22.20;60.20;;;;;;5014205;28;20343;-80
2021/05/29 10:10:28;;;;;;;4.60;2.00;;;22.10;59.30;;;;;;5026944;28;20226;-80
2021/05/29 10:12:57;;;;;;;1.90;1.80;;;22.10;59.40;;;;;;5023071;28;20218;-80
2021/05/29 10:15:24;;;;;;;2.47;1.93;;;22.10;60.10;;;;;;5017950;28;20227;-79
2021/05/29 10:17:53;;;;;;;1.90;1.70;;;22.10;60.00;;;;;;5025085;28;20223;-80
2021/05/29 10:20:20;;;;;;;4.00;2.07;;;22.10;59.50;;;;;;5014599;28;20242;-80
2021/05/29 10:22:48;;;;;;;2.03;1.90;;;22.10;59.50;;;;;;5020743;28;20227;-80
2021/05/29 10:25:18;;;;;;;2.07;1.70;;;22.10;59.10;;;;;;5021745;28;20231;-78
2021/05/29 10:27:51;;;;;;;3.37;1.67;;;22.10;59.60;;;;;;5028205;28;20222;-76
2021/05/29 10:30:22;;;;;;;3.43;2.00;;;22.20;59.50;;;;;;5013083;28;20248;-75
2021/05/29 10:33:15;;;;;;;4.90;1.90;;;22.20;60.30;;;;;;5010209;28;20226;-75
2021/05/29 10:35:43;;;;;;;3.30;2.17;;;22.20;59.90;;;;;;4982863;28;20565;-75
2021/05/29 10:38:11;;;;;;;4.80;1.90;;;22.20;60.00;;;;;;5015192;28;20210;-75
2021/05/29 10:40:42;;;;;;;2.43;1.60;;;22.30;59.90;;;;;;5013385;28;20231;-77
2021/05/29 10:43:19;;;;;;;3.00;1.80;;;22.30;60.40;;;;;;5016195;28;20703;-78
2021/05/29 10:45:52;;;;;;;7.20;2.27;;;22.30;60.10;;;;;;5007305;28;20229;-75
2021/05/29 10:48:19;;;;;;;5.30;2.27;;;22.40;60.80;;;;;;4994960;28;20223;-76
2021/05/29 10:53:37;;;;;;;3.00;1.97;;;22.40;60.10;;;;;;5014215;28;20219;-76
2021/05/29 10:59:00;;;;;;;4.70;2.00;;;22.40;59.80;;;;;;4971271;28;21790;-76
2021/05/29 11:01:37;;;;;;;4.00;2.13;;;22.40;60.10;;;;;;5012030;28;20729;-76
2021/05/29 11:04:16;;;;;;;3.50;2.00;;;22.40;60.00;;;;;;5015881;28;20237;-75
2021/05/29 11:06:48;;;;;;;2.17;1.60;;;22.40;60.20;;;;;;4999727;28;20482;-76
2021/05/29 11:09:24;;;;;;;2.47;1.93;;;22.50;60.10;;;;;;5013789;28;20917;-76
2021/05/29 11:11:52;;;;;;;3.20;2.13;;;22.50;60.50;;;;;;5014974;28;20237;-80
2021/05/29 11:14:24;;;;;;;3.70;2.03;;;22.50;61.10;;;;;;4999524;28;21443;-79
2021/05/29 11:16:51;;;;;;;2.40;2.03;;;22.50;61.10;;;;;;5015926;28;20231;-79
2021/05/29 11:19:25;;;;;;;2.27;1.77;;;22.60;59.70;;;;;;5022819;28;20596;-79
2021/05/29 11:22:04;;;;;;;3.37;1.97;;;22.50;59.80;;;;;;5013649;28;20247;-78
2021/05/29 11:24:33;;;;;;;2.07;1.63;;;22.60;59.60;;;;;;5030177;28;20230;-78
2021/05/29 11:27:04;;;;;;;2.10;1.87;;;22.50;59.50;;;;;;5017470;28;20237;-78
2021/05/29 11:29:55;;;;;;;2.13;1.80;;;22.60;60.20;;;;;;5024627;28;21519;-78
2021/05/29 11:32:58;;;;;;;1.97;1.60;;;22.50;59.90;;;;;;4988123;28;20222;-78
2021/05/29 11:35:30;;;;;;;3.60;2.17;;;22.60;59.70;;;;;;4996752;28;20332;-78
2021/05/29 11:38:11;;;;;;;3.20;1.87;;;22.50;59.80;;;;;;5018418;28;20624;-78
2021/05/29 11:40:49;;;;;;;2.77;2.20;;;22.50;60.00;;;;;;5020166;28;20223;-78
2021/05/29 11:43:34;;;;;;;2.63;1.70;;;22.50;60.20;;;;;;5026464;28;20648;-78
2021/05/29 11:46:05;;;;;;;2.27;2.07;;;22.50;59.80;;;;;;5020597;28;20226;-78
2021/05/29 11:48:35;;;;;;;2.30;2.10;;;22.50;59.80;;;;;;5027591;28;20232;-78
2021/05/29 11:51:14;;;;;;;1.87;1.67;;;22.60;59.70;;;;;;5025298;28;20226;-78
2021/05/29 11:53:48;;;;;;;2.07;1.87;;;22.50;59.30;;;;;;5035910;28;20766;-78
2021/05/29 11:56:33;;;;;;;3.10;2.10;;;22.50;59.60;;;;;;5025097;28;20233;-75
2021/05/29 11:59:05;;;;;;;2.03;1.87;;;22.50;60.10;;;;;;5020332;28;20286;-75
2021/05/29 12:01:37;;;;;;;2.87;1.87;;;22.50;59.30;;;;;;5023979;28;20218;-75
2021/05/29 12:04:06;;;;;;;2.93;2.40;;;22.50;59.50;;;;;;5022914;28;20226;-75
2021/05/29 12:06:54;;;;;;;2.30;1.97;;;22.50;59.70;;;;;;5035048;28;20225;-75
2021/05/29 12:09:30;;;;;;;2.37;2.00;;;22.50;60.30;;;;;;5010046;28;20323;-75
2021/05/29 12:11:59;;;;;;;2.83;1.90;;;22.50;59.90;;;;;;5031071;28;20233;-75
2021/05/29 12:14:46;;;;;;;2.13;1.93;;;22.50;59.60;;;;;;5010118;28;20310;-75
2021/05/29 12:17:16;;;;;;;2.10;1.90;;;22.50;59.80;;;;;;5022328;28;20226;-78
2021/05/29 12:19:53;;;;;;;2.43;2.00;;;22.50;59.90;;;;;;5020394;28;20267;-78
2021/05/29 12:22:31;;;;;;;2.03;1.80;;;22.50;59.90;;;;;;5018370;28;20256;-79
2021/05/29 12:25:05;;;;;;;2.00;1.83;;;22.50;59.50;;;;;;5015992;28;20297;-78
2021/05/29 12:27:40;;;;;;;3.03;2.03;;;22.50;60.70;;;;;;5025175;28;20381;-77
2021/05/29 12:30:13;;;;;;;2.33;2.13;;;22.50;59.80;;;;;;5029690;28;20237;-78
2021/05/29 12:32:48;;;;;;;2.07;1.87;;;22.50;59.70;;;;;;5019259;28;20223;-77
2021/05/29 12:35:32;;;;;;;1.77;1.60;;;22.50;60.00;;;;;;5035480;28;20239;-77
2021/05/29 12:38:09;;;;;;;1.83;1.73;;;22.50;60.60;;;;;;5018519;28;20706;-78
2021/05/29 12:40:36;;;;;;;2.00;1.80;;;22.50;59.50;;;;;;5031520;28;21490;-78
2021/05/29 12:43:12;;;;;;;2.00;1.80;;;22.50;59.30;;;;;;5020575;28;20227;-77
2021/05/29 12:45:41;;;;;;;2.57;2.00;;;22.60;59.40;;;;;;5029630;28;20281;-77
2021/05/29 12:48:11;;;;;;;1.87;1.73;;;22.60;59.90;;;;;;5017638;28;20222;-78
2021/05/29 12:50:59;;;;;;;2.13;1.93;;;22.60;59.50;;;;;;5036829;28;20226;-77
2021/05/29 12:53:31;;;;;;;1.70;1.60;;;22.60;59.70;;;;;;5000550;28;20262;-77
2021/05/29 12:56:10;;;;;;;1.90;1.80;;;22.50;59.70;;;;;;5025628;28;20393;-77
2021/05/29 12:58:37;;;;;;;1.90;1.70;;;22.60;59.90;;;;;;5024627;28;21748;-77
2021/05/29 13:09:38;;;;;;;2.30;2.10;;;22.60;59.20;;;;;;5021678;28;21494;-75
2021/05/29 13:12:12;;;;;;;2.30;2.10;;;22.60;59.30;;;;;;5018326;28;20222;-76
2021/05/29 13:14:41;;;;;;;2.37;2.20;;;22.60;59.00;;;;;;5001413;28;20229;-77
2021/05/29 13:17:20;;;;;;;2.30;2.20;;;22.60;59.10;;;;;;5022272;28;20226;-77
2021/05/29 13:19:51;;;;;;;1.93;1.70;;;22.70;59.20;;;;;;5003034;28;20250;-78
2021/05/29 13:22:29;;;;;;;1.73;1.63;;;22.70;59.10;;;;;;5018868;28;20653;-76
2021/05/29 13:24:57;;;;;;;1.90;1.80;;;22.70;59.00;;;;;;5017586;28;20230;-78
2021/05/29 13:27:28;;;;;;;2.47;2.27;;;22.70;59.00;;;;;;5006326;28;20231;-76